createdAt,value
2023-05-24T00:02:03.891Z,99885.06
2023-05-24T00:05:08.160Z,99881.34
2023-05-24T00:08:10.131Z,99890.09
2023-05-24T00:11:11.958Z,99862.09
2023-05-24T00:14:13.762Z,99882.75
2023-05-24T00:17:15.594Z,99877.44
2023-05-24T00:20:17.508Z,99858.81
2023-05-24T00:23:19.399Z,99867.81
2023-05-24T00:26:21.544Z,99873.25
2023-05-24T00:29:32.202Z,99781.50
2023-05-24T00:32:35.278Z,99853.31
2023-05-24T00:35:38.380Z,99853.22
2023-05-24T00:38:40.142Z,99857.41
2023-05-24T00:41:41.922Z,99829.34
2023-05-24T00:44:43.812Z,99844.06
2023-05-24T00:47:46.892Z,99843.91
2023-05-24T00:50:48.702Z,99853.41
2023-05-24T00:53:50.804Z,99836.88
2023-05-24T00:56:53.686Z,99855.66
2023-05-24T00:59:56.878Z,99848.50
2023-05-24T01:02:58.903Z,99851.19
2023-05-24T01:06:06.466Z,99854.59
2023-05-24T01:09:13.854Z,99868.94
2023-05-24T01:12:26.196Z,99881.19
2023-05-24T01:15:43.788Z,99889.81
2023-05-24T01:18:52.855Z,99892.81
2023-05-24T01:22:13.476Z,99908.38
2023-05-24T01:25:42.683Z,99902.41
2023-05-24T01:28:47.225Z,99905.09
2023-05-24T01:31:50.523Z,99908.63
2023-05-24T01:34:53.237Z,99901.13
2023-05-24T01:37:55.069Z,99906.69
2023-05-24T01:41:05.798Z,99899.59
2023-05-24T01:44:27.729Z,99885.38
2023-05-24T01:47:47.071Z,99898.25
2023-05-24T01:50:57.877Z,99890.06
2023-05-24T01:54:02.029Z,99885.53
2023-05-24T01:57:07.819Z,99876.75
2023-05-24T02:00:12.298Z,99877.63
2023-05-24T02:03:17.241Z,99886.94
2023-05-24T02:06:19.020Z,99889.41
2023-05-24T02:09:21.007Z,99900.81
2023-05-24T02:12:24.720Z,99910.78
2023-05-24T02:15:30.534Z,99906.31
2023-05-24T02:18:35.086Z,99908.41
2023-05-24T02:21:37.108Z,99909.94
2023-05-24T02:24:40.467Z,99913.53
2023-05-24T02:27:47.144Z,99922.75
2023-05-24T02:30:49.123Z,99926.97
2023-05-24T02:33:51.217Z,99926.97
2023-05-24T02:36:54.417Z,99937.59
2023-05-24T02:39:56.404Z,99927.13
2023-05-24T02:42:58.426Z,99928.38
2023-05-24T02:46:00.399Z,99927.41
2023-05-24T02:49:02.154Z,99929.84
2023-05-24T02:52:04.633Z,99930.75
2023-05-24T02:55:07.486Z,99944.50
2023-05-24T02:58:10.220Z,99937.69
2023-05-24T03:01:12.905Z,99937.84
2023-05-24T03:04:15.226Z,99949.19
2023-05-24T03:07:17.685Z,99953.78
2023-05-24T03:10:19.627Z,99957.91
2023-05-24T03:13:21.430Z,99959.31
2023-05-24T03:16:23.245Z,99967.22
2023-05-24T03:19:24.998Z,99979.28
2023-05-24T03:22:27.092Z,99976.63
2023-05-24T03:25:28.886Z,99976.28
2023-05-24T03:28:30.648Z,99978.09
2023-05-24T03:31:33.102Z,99977.59
2023-05-24T03:34:35.232Z,99977.94
2023-05-24T03:37:37.215Z,99984.19
2023-05-24T03:40:39.256Z,99975.47
2023-05-24T03:43:52.371Z,99975.38
2023-05-24T03:46:54.954Z,99969.56
2023-05-24T03:49:57.085Z,99977.84
2023-05-24T03:52:59.080Z,99987.47
2023-05-24T03:56:01.091Z,99980.53
2023-05-24T03:59:04.218Z,99979.50
2023-05-24T04:02:07.566Z,99986.41
2023-05-24T04:05:12.380Z,99983.66
2023-05-24T04:08:15.162Z,99966.81
2023-05-24T04:11:17.683Z,99990.72
2023-05-24T04:14:20.622Z,99986.34
2023-05-24T04:17:24.899Z,99992.69
2023-05-24T04:20:27.932Z,99966.31
2023-05-24T04:23:29.819Z,99990.00
2023-05-24T04:26:33.965Z,99998.69
2023-05-24T04:29:35.912Z,99993.38
2023-05-24T04:32:37.846Z,99984.81
2023-05-24T04:35:40.802Z,99988.59
2023-05-24T04:38:42.597Z,99988.59
2023-05-24T04:41:45.716Z,100000.38
2023-05-24T04:44:47.576Z,99995.25
2023-05-24T04:47:49.431Z,99989.75
2023-05-24T04:50:56.032Z,99990.63
2023-05-24T04:53:57.803Z,99993.00
2023-05-24T04:56:59.590Z,99988.91
2023-05-24T05:00:02.192Z,99958.16
2023-05-24T05:03:04.129Z,99989.66
2023-05-24T05:06:06.123Z,99995.06
2023-05-24T05:09:14.042Z,99989.06
2023-05-24T05:12:16.225Z,100007.84
2023-05-24T05:15:18.063Z,100007.25
2023-05-24T05:18:19.924Z,100009.84
2023-05-24T05:21:21.881Z,100013.44
2023-05-24T05:24:23.694Z,100013.16
2023-05-24T05:27:25.673Z,100010.16
2023-05-24T05:30:27.497Z,100020.78
2023-05-24T05:33:32.220Z,100020.78
2023-05-24T05:36:34.073Z,99940.94
2023-05-24T05:39:36.180Z,100021.38
2023-05-24T05:42:37.969Z,100033.47
2023-05-24T05:45:39.884Z,100040.84
2023-05-24T05:48:41.809Z,100044.91
2023-05-24T05:51:45.370Z,100048.25
2023-05-24T05:54:47.176Z,100041.38
2023-05-24T05:57:49.046Z,100033.13
2023-05-24T06:00:51.274Z,100046.16
2023-05-24T06:03:53.143Z,100048.31
2023-05-24T06:06:55.065Z,100053.25
2023-05-24T06:09:56.946Z,100044.13
2023-05-24T06:12:58.732Z,100057.50
2023-05-24T06:16:01.453Z,100053.56
2023-05-24T06:19:06.304Z,100002.69
2023-05-24T06:22:08.629Z,100062.53
2023-05-24T06:25:10.565Z,100075.47
2023-05-24T06:28:12.486Z,100070.91
2023-05-24T06:31:14.348Z,100067.31
2023-05-24T06:34:17.871Z,100062.75
2023-05-24T06:37:25.076Z,100063.50
2023-05-24T06:40:27.008Z,100075.09
2023-05-24T06:43:28.752Z,100072.63
2023-05-24T06:46:31.473Z,100070.94
2023-05-24T06:49:33.410Z,100071.59
2023-05-24T06:52:35.570Z,100079.63
2023-05-24T06:55:37.691Z,100069.44
2023-05-24T06:58:39.498Z,100082.38
2023-05-24T07:01:43.166Z,100088.91
2023-05-24T07:04:46.052Z,100091.34
2023-05-24T07:07:48.176Z,100097.94
2023-05-24T07:10:50.013Z,100096.88
2023-05-24T07:13:51.842Z,100092.13
2023-05-24T07:16:55.387Z,100098.69
2023-05-24T07:19:57.570Z,100097.41
2023-05-24T07:23:00.584Z,100098.53
2023-05-24T07:26:02.478Z,100103.59
2023-05-24T07:29:04.319Z,100109.38
2023-05-24T07:32:06.335Z,100108.06
2023-05-24T07:35:08.569Z,100123.19
2023-05-24T07:38:10.592Z,100109.97
2023-05-24T07:41:14.323Z,100123.31
2023-05-24T07:44:16.111Z,100129.31
2023-05-24T07:47:18.723Z,100126.00
2023-05-24T07:50:20.426Z,100128.84
2023-05-24T07:53:23.502Z,100134.84
2023-05-24T07:56:25.714Z,100138.94
2023-05-24T07:59:27.482Z,100143.34
2023-05-24T08:02:31.473Z,100134.56
2023-05-24T08:05:33.395Z,100149.44
2023-05-24T08:08:35.773Z,100145.41
2023-05-24T08:11:37.533Z,100134.94
2023-05-24T08:14:39.344Z,100155.59
2023-05-24T08:17:41.413Z,100164.25
2023-05-24T08:20:43.373Z,100171.13
2023-05-24T08:23:45.614Z,100164.25
2023-05-24T08:26:47.613Z,100160.66
2023-05-24T08:29:49.363Z,100165.38
2023-05-24T08:32:52.465Z,100150.34
2023-05-24T08:35:54.351Z,100168.59
2023-05-24T08:38:56.316Z,100176.97
2023-05-24T08:42:08.824Z,100174.69
2023-05-24T08:45:13.679Z,100185.72
2023-05-24T08:48:16.531Z,100180.38
2023-05-24T08:51:18.853Z,100188.09
2023-05-24T08:54:21.461Z,100182.56
2023-05-24T08:57:23.827Z,100163.06
2023-05-24T09:00:25.978Z,100184.66
2023-05-24T09:03:28.208Z,100191.47
2023-05-24T09:06:30.188Z,100196.81
2023-05-24T09:09:34.636Z,100191.47
2023-05-24T09:12:44.295Z,100196.38
2023-05-24T09:15:46.594Z,100198.13
2023-05-24T09:18:48.660Z,100207.47
2023-05-24T09:21:50.540Z,100207.75
2023-05-24T09:24:53.856Z,100206.91
2023-05-24T09:27:56.527Z,100207.84
2023-05-24T09:31:03.342Z,100198.81
2023-05-24T09:34:11.665Z,100213.19
2023-05-24T09:37:29.893Z,100200.56
2023-05-24T09:40:34.509Z,100215.59
2023-05-24T09:43:48.445Z,100219.06
2023-05-24T09:46:50.427Z,100216.13
2023-05-24T09:49:52.509Z,100216.81
2023-05-24T09:52:56.209Z,100208.66
2023-05-24T09:55:58.094Z,100206.31
2023-05-24T09:59:06.133Z,100169.84
2023-05-24T10:02:10.507Z,100203.28
2023-05-24T10:05:13.431Z,100207.59
2023-05-24T10:08:16.280Z,100214.00
2023-05-24T10:11:19.184Z,100212.31
2023-05-24T10:14:21.953Z,100199.28
2023-05-24T10:17:28.134Z,100190.59
2023-05-24T10:20:30.239Z,100199.69
2023-05-24T10:23:33.526Z,100194.38
2023-05-24T10:26:38.871Z,100207.16
2023-05-24T10:29:46.723Z,100205.28
2023-05-24T10:32:49.862Z,100201.63
2023-05-24T10:35:53.615Z,100190.28
2023-05-24T10:38:56.924Z,100194.38
2023-05-24T10:42:03.034Z,100195.69
2023-05-24T10:45:23.486Z,100197.34
2023-05-24T10:48:28.246Z,100187.91
2023-05-24T10:51:33.985Z,100188.53
2023-05-24T10:54:44.709Z,100188.84
2023-05-24T10:57:52.552Z,100187.69
2023-05-24T11:00:54.360Z,100196.13
2023-05-24T11:04:16.285Z,100184.91
2023-05-24T11:07:19.449Z,100182.56
2023-05-24T11:10:31.053Z,100182.47
2023-05-24T11:13:33.675Z,100162.38
2023-05-24T11:16:40.060Z,100188.41
2023-05-24T11:19:52.302Z,100185.47
2023-05-24T11:22:54.701Z,100163.31
2023-05-24T11:25:57.306Z,100185.72
2023-05-24T11:29:04.139Z,100180.34
2023-05-24T11:32:07.922Z,100174.94
2023-05-24T11:35:11.681Z,100158.06
2023-05-24T11:38:15.755Z,100180.41
2023-05-24T11:41:18.063Z,100192.78
2023-05-24T11:44:20.112Z,100172.13
2023-05-24T11:47:24.951Z,100187.50
2023-05-24T11:50:28.589Z,100183.84
2023-05-24T11:53:30.872Z,100188.13
2023-05-24T11:56:34.152Z,100134.69
2023-05-24T11:59:38.167Z,100167.66
2023-05-24T12:02:40.378Z,100171.22
2023-05-24T12:05:43.116Z,100118.78
2023-05-24T12:08:45.151Z,100176.00
2023-05-24T12:11:50.275Z,100179.06
2023-05-24T12:14:55.848Z,100167.97
2023-05-24T12:17:58.349Z,100172.47
2023-05-24T12:21:00.217Z,100176.00
2023-05-24T12:24:12.725Z,100157.19
2023-05-24T12:27:14.510Z,100179.13
2023-05-24T12:30:21.450Z,100161.34
2023-05-24T12:33:24.465Z,100168.13
2023-05-24T12:36:29.566Z,100182.66
2023-05-24T12:39:32.414Z,100177.66
2023-05-24T12:42:34.339Z,100173.00
2023-05-24T12:45:37.322Z,100168.50
2023-05-24T12:48:39.476Z,100172.41
2023-05-24T12:51:41.232Z,100177.03
2023-05-24T12:54:43.099Z,100181.75
2023-05-24T12:57:53.164Z,100185.06
2023-05-24T13:00:55.086Z,100178.88
2023-05-24T13:03:57.312Z,100189.59
2023-05-24T13:06:59.196Z,100194.13
2023-05-24T13:10:01.048Z,100167.63
2023-05-24T13:13:02.840Z,100193.66
2023-05-24T13:16:08.971Z,100190.56
2023-05-24T13:19:10.868Z,100193.53
2023-05-24T13:22:13.050Z,100198.75
2023-05-24T13:25:15.101Z,100198.25
2023-05-24T13:28:17.131Z,100183.13
2023-05-24T13:31:19.134Z,100195.16
2023-05-24T13:34:21.049Z,100220.88
2023-05-24T13:37:23.934Z,100169.19
2023-05-24T13:40:26.332Z,100223.50
2023-05-24T13:43:28.297Z,100223.66
2023-05-24T13:46:30.477Z,100210.13
2023-05-24T13:49:32.307Z,100214.00
2023-05-24T13:52:34.220Z,100222.13
2023-05-24T13:55:38.801Z,100221.28
2023-05-24T13:58:40.722Z,100203.94
2023-05-24T14:01:42.739Z,100208.88
2023-05-24T14:04:44.565Z,100197.97
2023-05-24T14:07:47.284Z,100205.00
2023-05-24T14:10:50.124Z,100224.09
2023-05-24T14:16:57.199Z,100202.63
2023-05-24T14:19:59.154Z,100209.53
2023-05-24T14:23:01.074Z,100209.25
2023-05-24T14:26:02.922Z,100203.31
2023-05-24T14:29:04.753Z,100207.38
2023-05-24T14:32:06.740Z,100190.47
2023-05-24T14:35:08.847Z,100207.78
2023-05-24T14:38:11.572Z,100178.88
2023-05-24T14:41:13.451Z,100209.75
2023-05-24T14:44:15.272Z,100217.00
2023-05-24T14:47:17.144Z,100203.34
2023-05-24T14:50:18.991Z,100210.00
2023-05-24T14:53:20.740Z,100210.53
2023-05-24T14:56:23.089Z,100215.69
2023-05-24T14:59:25.270Z,100225.53
2023-05-24T15:02:27.891Z,100226.66
2023-05-24T15:05:29.775Z,100237.34
2023-05-24T15:08:31.787Z,100227.44
2023-05-24T15:11:33.543Z,100237.22
2023-05-24T15:14:35.335Z,100240.81
2023-05-24T15:17:37.170Z,100228.75
2023-05-24T15:20:39.093Z,100239.53
2023-05-24T15:23:42.674Z,100233.00
2023-05-24T15:26:44.528Z,100226.91
2023-05-24T15:29:46.368Z,100223.41
2023-05-24T15:32:48.190Z,100217.03
2023-05-24T15:35:50.190Z,100218.16
2023-05-24T15:38:52.046Z,100222.09
2023-05-24T15:41:53.906Z,100214.44
2023-05-24T15:44:55.959Z,100205.69
2023-05-24T15:47:57.774Z,100195.88
2023-05-24T15:51:53.824Z,100204.53
2023-05-24T15:54:21.479Z,100195.88
2023-05-24T15:57:23.268Z,100193.03
2023-05-24T16:00:25.234Z,100196.72
2023-05-24T16:03:27.046Z,100205.91
2023-05-24T16:06:28.999Z,100208.66
2023-05-24T16:09:31.249Z,100188.25
2023-05-24T16:12:33.186Z,100189.81
2023-05-24T16:15:36.180Z,100202.84
2023-05-24T16:18:38.132Z,100189.53
2023-05-24T16:21:40.008Z,100191.13
2023-05-24T16:24:41.985Z,100129.13
2023-05-24T16:27:43.906Z,100189.81
2023-05-24T16:30:45.912Z,100190.94
2023-05-24T16:33:47.761Z,100182.94
2023-05-24T16:36:49.920Z,100199.69
2023-05-24T16:39:51.720Z,100193.03
2023-05-24T16:42:54.461Z,100196.84
2023-05-24T16:45:56.401Z,100205.41
2023-05-24T16:48:59.199Z,100206.16
2023-05-24T16:52:02.205Z,100204.63
2023-05-24T16:55:04.460Z,100211.44
2023-05-24T16:58:06.687Z,100217.53
2023-05-24T17:01:09.946Z,100202.63
2023-05-24T17:04:11.868Z,100190.44
2023-05-24T17:07:13.705Z,100213.28
2023-05-24T17:10:15.442Z,100231.06
2023-05-24T17:13:17.239Z,100220.63
2023-05-24T17:16:19.364Z,100228.72
2023-05-24T17:19:21.621Z,100230.56
2023-05-24T17:22:23.380Z,100226.69
2023-05-24T17:25:25.182Z,100214.75
2023-05-24T17:28:27.879Z,100218.22
2023-05-24T17:31:33.110Z,100221.38
2023-05-24T17:34:59.070Z,100224.03
2023-05-24T17:41:24.936Z,100213.63
2023-05-24T17:44:29.651Z,100235.34
2023-05-24T17:47:58.933Z,100241.72
2023-05-24T17:51:23.304Z,100181.97
2023-05-24T17:57:51.382Z,100245.44
2023-05-24T18:04:44.929Z,100166.63
2023-05-24T18:11:08.569Z,100254.59
2023-05-24T18:14:10.882Z,100263.53
2023-05-24T18:17:12.694Z,100263.97
2023-05-24T18:20:15.384Z,100264.41
2023-05-24T18:23:17.996Z,100259.25
2023-05-24T18:26:19.751Z,100269.22
2023-05-24T18:29:21.538Z,100273.06
2023-05-24T18:32:23.547Z,100284.50
2023-05-24T18:35:25.541Z,100294.44
2023-05-24T18:38:27.365Z,100314.03
2023-05-24T18:41:29.121Z,100310.88
2023-05-24T18:44:30.962Z,100303.16
2023-05-24T18:47:32.812Z,100300.72
2023-05-24T18:50:34.755Z,100243.06
2023-05-24T18:53:36.534Z,100306.81
2023-05-24T18:56:38.340Z,100300.53
2023-05-24T18:59:40.055Z,100304.91
2023-05-24T19:02:41.998Z,100279.25
2023-05-24T19:05:44.439Z,100311.31
2023-05-24T19:08:46.384Z,100334.00
2023-05-24T19:11:49.020Z,100276.53
2023-05-24T19:14:50.907Z,100343.38
2023-05-24T19:17:53.503Z,100340.78
2023-05-24T19:20:55.352Z,100358.44
2023-05-24T19:23:57.382Z,100352.56
2023-05-24T19:27:01.287Z,100348.00
2023-05-24T19:30:03.167Z,100362.75
2023-05-24T19:33:05.235Z,100369.56
2023-05-24T19:36:08.734Z,100319.59
2023-05-24T19:39:12.566Z,100357.84
2023-05-24T19:42:14.440Z,100358.09
2023-05-24T19:45:16.471Z,100359.78
2023-05-24T19:48:18.276Z,100355.25
2023-05-24T19:51:27.924Z,100363.00
2023-05-24T19:54:33.746Z,100350.66
2023-05-24T19:57:35.908Z,100357.34
2023-05-24T20:00:37.634Z,100363.59
2023-05-24T20:03:39.785Z,100355.47
2023-05-24T20:06:41.698Z,100351.59
2023-05-24T20:09:43.511Z,100358.38
2023-05-24T20:12:45.554Z,100350.56
2023-05-24T20:15:47.344Z,100363.28
2023-05-24T20:18:49.242Z,100362.78
2023-05-24T20:21:51.044Z,100352.75
2023-05-24T20:24:52.964Z,100360.09
2023-05-24T20:27:54.779Z,100362.06
2023-05-24T20:30:56.551Z,100356.09
2023-05-24T20:33:58.547Z,100358.13
2023-05-24T20:37:00.508Z,100362.78
2023-05-24T20:40:05.275Z,100352.31
2023-05-24T20:43:08.561Z,100361.28
2023-05-24T20:46:10.830Z,100367.56
2023-05-24T20:49:12.809Z,100363.34
2023-05-24T20:52:16.286Z,100358.97
2023-05-24T20:55:18.963Z,100375.53
2023-05-24T20:58:20.819Z,100341.97
2023-05-24T21:01:23.278Z,100382.38
2023-05-24T21:04:26.568Z,100374.16
2023-05-24T21:07:28.355Z,100391.16
2023-05-24T21:10:30.326Z,100379.91
2023-05-24T21:13:32.182Z,100385.09
2023-05-24T21:16:34.070Z,100398.69
2023-05-24T21:19:35.959Z,100402.44
2023-05-24T21:22:37.724Z,100382.00
2023-05-24T21:25:39.855Z,100406.44
2023-05-24T21:28:41.727Z,100387.72
2023-05-24T21:31:43.714Z,100395.34
2023-05-24T21:34:45.685Z,100407.78
2023-05-24T21:37:47.474Z,100413.50
2023-05-24T21:40:49.339Z,100403.34
2023-05-24T21:43:51.107Z,100416.50
2023-05-24T21:46:53.014Z,100406.72
2023-05-24T21:49:55.027Z,100411.97
2023-05-24T21:52:56.920Z,100385.06
2023-05-24T21:55:58.733Z,100415.03
2023-05-24T21:59:00.583Z,100401.03
2023-05-24T22:02:02.338Z,100416.09
2023-05-24T22:05:05.421Z,100385.22
2023-05-24T22:08:07.286Z,100412.91
2023-05-24T22:11:09.140Z,100413.84
2023-05-24T22:14:11.035Z,100406.84
2023-05-24T22:17:14.307Z,100406.13
2023-05-24T22:20:17.084Z,100415.69
2023-05-24T22:23:18.876Z,100415.50
2023-05-24T22:26:20.681Z,100419.78
2023-05-24T22:29:22.591Z,100419.94
2023-05-24T22:32:24.532Z,100426.44
2023-05-24T22:35:26.407Z,100416.09
2023-05-24T22:38:28.210Z,100432.94
2023-05-24T22:41:30.146Z,100422.47
2023-05-24T22:44:32.021Z,100424.44
2023-05-24T22:47:34.069Z,100425.44
2023-05-24T22:50:36.066Z,100426.16
2023-05-24T22:53:39.669Z,100427.09
2023-05-24T22:56:41.880Z,100425.19
2023-05-24T22:59:45.980Z,100424.28
2023-05-24T23:02:48.057Z,100397.91
2023-05-24T23:05:53.657Z,100419.41
2023-05-24T23:08:55.740Z,100429.59
2023-05-24T23:11:58.658Z,100418.06
2023-05-24T23:15:00.731Z,100435.38
2023-05-24T23:18:03.128Z,100426.75
2023-05-24T23:21:04.960Z,100435.66
2023-05-24T23:24:07.178Z,100425.31
2023-05-24T23:27:09.174Z,100427.22
2023-05-24T23:30:11.128Z,100433.44
2023-05-24T23:33:12.854Z,100436.88
2023-05-24T23:36:14.603Z,100432.47
2023-05-24T23:39:16.903Z,100428.06
2023-05-24T23:42:18.692Z,100431.69
2023-05-24T23:45:20.495Z,100411.75
2023-05-24T23:48:23.456Z,100430.84
2023-05-24T23:51:25.413Z,100424.75
2023-05-24T23:54:27.189Z,100428.50
2023-05-24T23:57:29.898Z,100428.91
